Tiempo atmosférico en la estación meteorológica de Andújar, Jaén (193 m.)



Fecha
DESCASC
Temp. máxima en grados centígrados (hora)
DESCASC
Temp. mínima en grados centígrados (hora)
DESCASC
Temp. media en grados centígrados
DESCASC
Racha de viento máxima en m/sg (hora)
DESCASC
Velocidad máxima media en intervalos de 10 minutos(hora)
DESCASC
Precipitaciones diarias en mm
DESCASC
Precipitaciones de 00:00 a 06:00 en mm
DESCASC
Precipitaciones de 06:00 a 12:00 en mm
DESCASC
Precipitaciones de 12:00 a 18:00 en mm
DESCASC
Precipitaciones de 18:00 a 24:00 en mm
DESCASC
18-04-2019 17.9 (14:40) 10.5 (15:50) 14.2 11.39 (15:50) 7.22 (15:50) 9.5 2.5 2.6 4.4 0
17-04-2019 27.5 (14:30) 7.8 (07:40) 17.7 13.61 (17:20) 8.61 (17:20) 0 0 0 0 0
16-04-2019 27.4 (17:40) 11.9 (00:00) 19.6 7.78 (00:10) 5.28 (00:40) 0 0 0 0 0
15-04-2019 28.6 (15:10) 11.4 (00:00) 20 13.61 (19:00) 8.61 (18:40) 0 0 0 0 0
14-04-2019 27.1 (16:40) 7.4 (00:00) 17.3 6.39 (18:00) 2.78 (18:10) 0 0 0 0 0
13-04-2019 25.5 (17:40) 3.5 (00:00) 14.5 6.94 (18:50) 3.61 (18:40) 0 0 0 0 0
12-04-2019 23.2 (18:00) 3.9 (00:00) 13.6 5.83 (12:40) 3.06 (17:40) 0 0 0 0 0
11-04-2019 20.7 (16:30) 3.9 (00:00) 12.3 4.72 (10:10) 3.33 (17:40) 0 0 0 0 0
10-04-2019 18.8 (17:50) 7.4 (00:00) 13.1 9.17 (12:20) 6.67 (19:40) 0 0 0 0 0
09-04-2019 17.5 (18:00) 8 (00:00) 12.8 12.22 (16:40) 7.22 (17:50) 4.5 1.8 0 2.7 0
08-04-2019 17.3 (15:10) 10.8 (00:00) 14 12.22 (22:20) 7.22 (16:30) 16.6 2.2 1.4 7.4 5.6
07-04-2019 16.1 (15:00) 8.3 (00:00) 12.2 13.33 (06:10) 6.11 (15:40) 4.1 0 0.3 0 3.8
06-04-2019 14 (15:10) 7.4 (00:00) 10.7 11.67 (17:00) 7.78 (17:00) 6.9 0.1 1.3 2.8 2.7
05-04-2019 14 (17:00) 7.7 (00:00) 10.8 17.22 (14:30) 8.89 (17:30) 9.6 0 5.6 4 0
04-04-2019 20.7 (15:30) 2.3 (00:00) 11.5 9.72 (18:20) 6.11 (18:20) 0 0 0 0 0
03-04-2019 23.9 (15:40) 6.4 (00:00) 15.1 12.78 (17:00) 7.5 (17:00) 0 0 0 0 0
02-04-2019 22.7 (17:30) 11.2 (00:00) 17 6.67 (16:10) 4.44 (19:20) 0.2 0.1 0 0.1 0
01-04-2019 21.8 (14:20) 10 (00:00) 15.9 9.72 (16:00) 6.67 (16:00) 0 0 0 0 0
31-03-2019 17.8 (17:40) 9.8 (00:00) 13.8 6.11 (01:10) 4.17 (01:20) 10.3 6.1 4.2 0 0
30-03-2019 26 (17:30) 5.8 (00:00) 15.9 8.33 (19:50) 5.56 (21:50) 0 0 0 0 0
29-03-2019 23.8 (16:30) 4.3 (00:00) 14 6.94 (12:10) 4.17 (21:40) 0 0 0 0 0
28-03-2019 23.7 (15:40) 2.4 (00:00) 13.1 8.61 (16:10) 4.72 (16:10) 0 0 0 0 0
27-03-2019 22.4 (16:30) 5.5 (00:00) 13.9 12.22 (10:20) 5.56 (10:00) 0 0 0 0 0
26-03-2019 27 (16:00) 9.9 (00:00) 18.4 11.67 (15:30) 5.28 (14:00) 0 0 0 0 0
25-03-2019 25.8 (15:20) 4.6 (00:00) 15.2 8.33 (11:30) 4.72 (11:40) 0 0 0 0 0
24-03-2019 24.3 (17:20) 8.4 (00:00) 16.3 7.5 (12:00) 4.17 (11:30) 0 0 0 0 0
23-03-2019 22.2 (14:00) 4.9 (00:00) 13.6 14.72 (17:20) 8.61 (17:30) 0 0 0 0 0
22-03-2019 22.4 (16:40) 0.3 (00:00) 11.3 7.22 (13:20) 3.89 (13:20) 0 0 0 0 0
21-03-2019 20.5 (16:40) 2.4 (00:00) 11.5 10 (13:50) 4.44 (11:10) 0 0 0 0 0

Gráficas

Temp. máximas Temp. mínimas Temp. medias Precipitaciones Rachas de viento máximas Velocidades máximas media en intervalos de 10 minutos

Datos horarios

Fecha y hora oficial Temperatura (ºC) Velocidad del viento (km/h) Dirección del viento Racha (km/h) Dirección de racha Precipitación (mm) Presión (hPa) Tendencia (hPa) Humedad (%)
2019-04-19 23:00:00 11.3 0 Calma 6 Este 0 991.8 2 91
2019-04-19 22:00:00 13 0 Calma 17 Este 0 991.3 2.3 83
2019-04-19 21:00:00 14 5 Este 17 Este 0 991.1 2.5 73
2019-04-19 20:00:00 14.7 3 Nordeste 21 Norte 0.2 989.8 1 68
2019-04-19 19:00:00 18.2 4 Norte 18 Noroeste 0 989 0.1 46
2019-04-19 18:00:00 18.3 2 Noroeste 13 Sur 0.7 988.6 -0.6 55
2019-04-19 17:00:00 18.4 3 Noroeste 14 Noroeste 0 988.8 -1 42
2019-04-19 16:00:00 18.9 5 Noroeste 15 Oeste 0 988.9 -1.7 41
2019-04-19 15:00:00 19.5 3 Oeste 17 Noroeste 0 989.2 -1.7 43
2019-04-19 14:00:00 16.5 6 Noroeste 18 Noroeste 0 989.8 -0.9 52
2019-04-19 13:00:00 18.8 6 Sudeste 15 Sudeste 0 990.6 0.1 38
2019-04-19 12:00:00 18.1 4 Sudeste 11 Este 0 990.9 0.3 49
2019-04-19 11:00:00 15.3 0 Calma 10 Este 0 990.7 0.4 57
2019-04-19 10:00:00 13.5 2 Sudeste 8 Este 0 990.5 1 69
2019-04-19 09:00:00 11.9 0 Calma 5 Este 0 990.6 0.9 90
2019-04-19 08:00:00 10.9 0 Calma 4 Oeste 0 990.3 0.5 92
2019-04-19 07:00:00 11 5 Oeste 8 Oeste 0 989.5 -0.2 91
2019-04-19 06:00:00 11.2 0 Calma 5 Noroeste 0 989.7 -0.6 91
2019-04-19 05:00:00 11 0 Calma 7 Oeste 0 989.8 -0.8 91
2019-04-19 04:00:00 11.1 5 Noroeste 9 Oeste 0 989.7 -0.4 88
2019-04-19 03:00:00 11.4 4 Sudoeste 12 Oeste 0 990.3 0.4 84
2019-04-19 02:00:00 11.2 4 Sudoeste 5 Sudoeste 0 990.6 1 91
2019-04-19 01:00:00 11.1 0 Calma 9 Oeste 0 990.1 0.4 91
2019-04-19 00:00:00 11.3 3 Noroeste 14 Oeste 0 989.9 1.2 87
2019-04-18 23:00:00 11.7 7 Sudoeste 19 Noroeste 0 989.6 1.6 86
2019-04-18 22:00:00 12.7 15 Oeste 26 Sudoeste 0 989.7 2.1 76
2019-04-18 21:00:00 14.2 6 Sudoeste 12 Oeste 0 988.7 1.5 67
2019-04-18 20:00:00 14.8 6 Oeste 13 Oeste 0 988 0.3 63
2019-04-18 19:00:00 15.2 9 Oeste 18 Oeste 0 987.6 -0.6 62
2019-04-18 18:00:00 15.8 5 Oeste 14 Sudoeste 0 987.2 -0.2 60
2019-04-18 17:00:00 13 6 Oeste 28 Noroeste 1.8 987.7 0.1 87
2019-04-18 16:00:00 10.9 21 Oeste 41 Oeste 2.6 988.2 -0.5 87
2019-04-18 15:00:00 16.1 8 Este 19 Sudeste 0 987.4 -2.1 55
2019-04-18 14:00:00 16.3 9 Este 19 Este 0 987.6 -1.8 61
2019-04-18 13:00:00 14.2 11 Este 18 Este 0 988.7 -0.4 74
2019-04-18 12:00:00 13.2 6 Este 14 Sudeste 0.1 989.5 0.8 82
2019-04-18 11:00:00 12.9 2 Este 10 Este 0.6 989.4 0.9 92
2019-04-18 10:00:00 12.3 2 Este 11 Este 0 989.1 1.1 93
2019-04-18 09:00:00 12.1 0 Calma 5 Este 0.8 988.7 0.5 93
2019-04-18 08:00:00 12.2 0 Calma 5 Este 1.1 988.5 0 93
2019-04-18 07:00:00 12.1 3 Sudeste 12 Sudeste 0 988 -0.5 93
2019-04-18 06:00:00 12.1 0 Calma 4 Este 0.3 988.2 -0.9 93
2019-04-18 05:00:00 12.3 0 Calma 14 Sudoeste 0.1 988.5 -1.5 92
2019-04-18 04:00:00 12.4 5 Este 14 Este 0.6 988.5 -1.6 92
2019-04-18 03:00:00 12.7 0 Calma 7 Este 0.2 989.1 -1.4 92
2019-04-18 02:00:00 12.5 0 Calma 14 Sudeste 1 990 0.1 90
2019-04-18 01:00:00 13 5 Sudoeste 22 Sudoeste 0.3 990.1 1 79
2019-04-18 00:00:00 14.8 14 Sudoeste 27 Sudoeste 0 990.5 3.3 64
2019-04-17 23:00:00 16 15 Oeste 36 Sudoeste 0 989.9 3.4 57
2019-04-17 22:00:00 17.2 22 Oeste 33 Oeste 0 989.1 3 56
2019-04-17 21:00:00 18.8 12 Oeste 35 Oeste 0 987.2 2.4 46
2019-04-17 20:00:00 20 19 Oeste 36 Oeste 0 986.5 2.4 43
2019-04-17 19:00:00 20.9 14 Oeste 34 Oeste 0 986.1 1.7 40
2019-04-17 18:00:00 21.3 31 Oeste 49 Oeste 0 984.8 0.8 37
2019-04-17 17:00:00 22.7 27 Oeste 45 Oeste 0 984.1 -0.5 36
2019-04-17 16:00:00 24 26 Oeste 37 Oeste 0 984.4 -1.1 30
2019-04-17 15:00:00 25.2 23 Oeste 35 Oeste 0 984 -2.2 27
2019-04-17 14:00:00 25.7 2 Sudoeste 17 Este 0 984.6 -2 27
2019-04-17 13:00:00 24.4 6 Sudeste 18 Este 0 985.5 -1.3 30
2019-04-17 12:00:00 22.1 5 Este 18 Este 0 986.2 -0.5 35
2019-04-17 11:00:00 20.3 9 Este 17 Este 0 986.6 -0.4 40
2019-04-17 10:00:00 17.7 9 Este 15 Este 0 986.8 -0.3 49
2019-04-17 09:00:00 14.6 6 Sudeste 11 Este 0 986.7 -1.3 67
2019-04-17 08:00:00 8.6 0 Calma 4 Oeste 0 987 -1.3 91
2019-04-17 07:00:00 8.1 0 Calma 4 Este 0 987.1 -1.6 90
2019-04-17 06:00:00 8.9 0 Calma 6 Oeste 0 988 -1.1 89
2019-04-17 05:00:00 8.8 0 Calma -- -- 0 988.3 -1.4 86
2019-04-17 04:00:00 10 0 Calma 8 Norte 0 988.7 -0.6 82
2019-04-17 03:00:00 11.5 0 Calma 5 Sudoeste 0 989.1 0.1 75
2019-04-17 02:00:00 11.8 0 Calma 5 Sudeste 0 989.7 0.9 76
2019-04-17 01:00:00 12.5 0 Calma 6 Sudeste 0 989.3 0.7 73
2019-04-17 00:00:00 13.7 4 Oeste 8 Sudeste 0 989 1 61
2019-04-16 23:00:00 14.8 0 Calma 6 Noroeste 0 988.8 1.1 56
2019-04-16 22:00:00 17.7 4 Oeste 7 Oeste 0 988.6 0.7 41
2019-04-16 21:00:00 20.7 4 Sudoeste 6 Sudoeste 0 988 -0.5 35
2019-04-16 20:00:00 24.5 2 Nordeste 7 Noroeste 0 987.7 -1.4 29
2019-04-16 19:00:00 25.8 3 Oeste 13 Este 0 987.9 -2.5 26
2019-04-16 18:00:00 25.7 0 Calma 11 Este 0 988.5 -2.6 24
2019-04-16 17:00:00 26.3 5 Nordeste 15 Sudeste 0 989.1 -3.1 24
2019-04-16 16:00:00 25.4 4 Norte 17 Este 0 990.4 -2.5 24
2019-04-16 15:00:00 25.2 6 Este 20 Este 0 991.1 -3.3 25
2019-04-16 14:00:00 23.4 6 Sudeste 18 Este 0 992.2 -2.5 28
2019-04-16 13:00:00 22.3 6 Nordeste 17 Nordeste 0 992.9 -1.5 38
2019-04-16 12:00:00 17.9 3 Nordeste 17 Sudeste 0 994.4 0.2 60
2019-04-16 11:00:00 15.1 4 Este 19 Este 0 994.7 0.7 75
2019-04-16 10:00:00 14.4 7 Sudeste 15 Este 0 994.4 1 79
2019-04-16 09:00:00 14 2 Este 9 Sudeste 0 994.2 0.2 82
2019-04-16 08:00:00 13.4 2 Sudeste 9 Sudeste 0 994 -0.1 87
2019-04-16 07:00:00 13.4 2 Sudoeste 15 Oeste 0 993.4 -0.8 87
2019-04-16 06:00:00 13.7 8 Oeste 18 Oeste 0 994 -0.3 85
2019-04-16 05:00:00 14.3 10 Oeste 15 Oeste 0 994.1 0.3 84
2019-04-16 04:00:00 12.9 0 Calma 5 Oeste 0 994.2 0.6 88
2019-04-16 03:00:00 13.2 2 Sur 13 Oeste 0 994.3 1.1 84
2019-04-16 02:00:00 15 10 Oeste 23 Sudoeste 0 993.8 1.1 74
2019-04-16 01:00:00 16.4 16 Sudoeste 28 Sudoeste 0 993.6 2.4 67
2019-04-16 00:00:00 17.9 20 Sudoeste 32 Sudoeste 0 993.2 3.4 59
2019-04-15 23:00:00 18.7 20 Oeste 33 Oeste 0 992.7 3.8 52
2019-04-15 22:00:00 19.7 23 Oeste 48 Oeste 0 991.2 2.7 46
2019-04-15 21:00:00 21.9 19 Sudoeste 38 Sudoeste 0 989.8 2 36
2019-04-15 20:00:00 23.3 17 Sudoeste 41 Sudoeste 0 988.9 1.6 26
2019-04-15 19:00:00 25.3 27 Oeste 49 Oeste 0 988.5 0.7 22
2019-04-15 18:00:00 27.7 26 Oeste 42 Oeste 0 987.8 -0.4 18
2019-04-15 17:00:00 27.7 23 Sudoeste 42 Sudoeste 0 987.3 -1.5 21
2019-04-15 16:00:00 27.2 24 Oeste 47 Oeste 0 987.8 -1.7 23
2019-04-15 15:00:00 28 18 Oeste 33 Sudoeste 0 988.2 -1.7 24
2019-04-15 14:00:00 24.6 10 Noroeste 28 Noroeste 0 988.8 -0.9 35
2019-04-15 13:00:00 23.4 15 Noroeste 26 Noroeste 0 989.5 0.6 36
2019-04-15 12:00:00 21.2 4 Noroeste 10 Norte 0 989.9 1.3 47
2019-04-15 11:00:00 19.2 0 Calma 12 Sudeste 0 989.7 0.8 55
2019-04-15 10:00:00 18.1 6 Sudeste 15 Este 0 988.9 0.1 56
2019-04-15 09:00:00 15 9 Este 14 Este 0 988.6 -0.5 77
2019-04-15 08:00:00 11.7 3 Este 10 Sudeste 0 988.9 -0.7 91
2019-04-15 07:00:00 12.4 4 Este 8 Sudeste 0 988.8 -1.2 89
2019-04-15 06:00:00 12.2 0 Calma 5 Este 0 989.1 -1.1 90
2019-04-15 05:00:00 13.6 4 Sudeste 11 Este 0 989.6 -1.2 83
2019-04-15 04:00:00 12.2 0 Calma 5 Este 0 990 -0.8 87
2019-04-15 03:00:00 12.9 2 Este 5 Este 0 990.2 -0.7 84
2019-04-15 02:00:00 13.5 0 Calma 2 Este 0 990.8 -0.3 80
2019-04-15 01:00:00 14.6 0 Calma 4 Sudeste 0 990.8 -0.2 74
2019-04-15 00:00:00 16.4 2 Este 4 Sudeste 0 990.9 0.3 63
2019-04-14 23:00:00 18.4 0 Calma 8 Oeste 0 991.1 0.9 51
2019-04-14 22:00:00 20.2 5 Noroeste 13 Oeste 0 991 0.6 42
2019-04-14 21:00:00 22.3 6 Oeste 8 Oeste 0 990.6 0.1 37
2019-04-14 20:00:00 24.5 4 Oeste 14 Oeste 0 990.2 -1 32
2019-04-14 19:00:00 24.9 6 Oeste 19 Oeste 0 990.4 -1.6 31
2019-04-14 18:00:00 26.4 5 Sudoeste 23 Sudoeste 0 990.5 -2.3 28
2019-04-14 17:00:00 25.9 8 Sudoeste 19 Sudoeste 0 991.2 -2.2 29
2019-04-14 16:00:00 25.7 6 Oeste 22 Oeste 0 992 -2.1 30
2019-04-14 15:00:00 24.8 9 Noroeste 19 Noroeste 0 992.8 -2.2 31
2019-04-14 14:00:00 22.5 3 Norte 12 Noroeste 0 993.4 -1.9 35
2019-04-14 13:00:00 22.1 0 Calma 9 Sudeste 0 994.1 -0.9 36
2019-04-14 12:00:00 18.5 2 Nordeste 9 Este 0 995 -0.1 40
2019-04-14 11:00:00 17.5 3 Este 10 Sudeste 0 995.3 0.5 45
2019-04-14 10:00:00 14 5 Este 10 Sudeste 0 995 0.5 60
2019-04-14 09:00:00 10.3 0 Calma 6 Este 0 995.1 0.6 85
2019-04-14 08:00:00 7.7 0 Calma 4 Sudoeste 0 994.8 -0.1 90
2019-04-14 07:00:00 7.5 0 Calma 5 Sudeste 0 994.5 -0.5 89
2019-04-14 06:00:00 8.7 0 Calma 3 Este 0 994.5 -0.5 86
2019-04-14 05:00:00 9.3 0 Calma 4 Noroeste 0 994.9 -0.1 84
2019-04-14 04:00:00 9.1 0 Calma 4 Noroeste 0 995 -0.1 81
2019-04-14 03:00:00 9.9 0 Calma 4 Oeste 0 995 0 74
2019-04-14 02:00:00 10.7 3 Noroeste 5 Oeste 0 995 0.1 67
2019-04-14 01:00:00 12.2 4 Este 5 Sudeste 0 995.1 0.9 60
2019-04-14 00:00:00 13.7 3 Noroeste 12 Oeste 0 995 1.6 50
2019-04-13 23:00:00 17.1 9 Oeste 15 Sudoeste 0 994.9 2.1 37
2019-04-13 22:00:00 18.9 10 Sudoeste 16 Oeste 0 994.2 1.7 31
2019-04-13 21:00:00 20.1 12 Oeste 19 Oeste 0 993.4 0.7 26
2019-04-13 20:00:00 22.6 13 Oeste 22 Oeste 0 992.8 -0.2 20
2019-04-13 19:00:00 24.1 8 Oeste 25 Noroeste 0 992.5 -1.1 20
2019-04-13 18:00:00 24.7 8 Oeste 20 Oeste 0 992.7 -1.4 19
2019-04-13 17:00:00 24 8 Oeste 21 Oeste 0 993 -1.5 20
2019-04-13 16:00:00 23.6 6 Oeste 23 Noroeste 0 993.6 -1.8 19
2019-04-13 15:00:00 23.9 2 Sudoeste 17 Oeste 0 994.1 -1.9 20
2019-04-13 14:00:00 22.9 6 Oeste 14 Sudoeste 0 994.5 -1.7 22
2019-04-13 13:00:00 20.2 3 Oeste 9 Oeste 0 995.4 -0.8 35
2019-04-13 12:00:00 17.2 3 Nordeste 9 Nordeste 0 996 0 42
2019-04-13 11:00:00 15.2 4 Nordeste 13 Sudeste 0 996.2 0.8 48
2019-04-13 10:00:00 11.4 4 Este 8 Este 0 996.2 1.4 67
2019-04-13 09:00:00 6.9 0 Calma 4 Este 0 996 1.6 92
2019-04-13 08:00:00 4.3 0 Calma 3 Este 0 995.4 1.2 92
2019-04-13 07:00:00 4.6 0 Calma 4 Este 0 994.8 0.8 92
2019-04-13 06:00:00 5.3 0 Calma 3 Sudeste 0 994.4 0.3 92
2019-04-13 05:00:00 5.7 0 Calma 3 Sudoeste 0 994.2 0.1 91
2019-04-13 04:00:00 6.4 0 Calma 3 Sudoeste 0 994 -0.1 89
2019-04-13 03:00:00 7.1 0 Calma 6 Este 0 994.1 0.6 87
2019-04-13 02:00:00 8 3 Este 6 Este 0 994.1 1 83
2019-04-13 01:00:00 9.7 2 Sudeste 5 Oeste 0 994.1 1.6 77
2019-04-13 00:00:00 10.5 0 Calma 3 Sur 0 993.5 1.7 68
2019-04-12 23:00:00 12 0 Calma 8 Noroeste 0 993.1 1.7 57
2019-04-12 22:00:00 14.3 2 Noroeste 9 Oeste 0 992.5 1.2 40
2019-04-12 21:00:00 16.1 0 Calma 11 Oeste 0 991.8 0.2 35
2019-04-12 20:00:00 20.3 7 Sudoeste 15 Oeste 0 991.4 -0.4 25
2019-04-12 19:00:00 21.5 5 Sudoeste 19 Oeste 0 991.3 -1.6 23
2019-04-12 18:00:00 22.7 4 Sudoeste 18 Oeste 0 991.6 -2 22
2019-04-12 17:00:00 22.4 3 Sudeste 14 Sudeste 0 991.8 -2.1 23
2019-04-12 16:00:00 20.4 7 Noroeste 18 Oeste 0 992.9 -1.7 24
2019-04-12 15:00:00 21.1 6 Oeste 17 Oeste 0 993.6 -1.4 24
2019-04-12 14:00:00 20.6 6 Este 17 Sudeste 0 993.9 -1.2 25
2019-04-12 13:00:00 18.6 6 Este 21 Este 0 994.6 -0.4 31
2019-04-12 12:00:00 16.1 7 Este 18 Este 0 995 0 41
2019-04-12 11:00:00 12.8 8 Este 17 Este 0 995.1 0.5 53
2019-04-12 10:00:00 11.1 6 Este 13 Este 0 995 0.9 68
2019-04-12 09:00:00 6.8 0 Calma 4 Este 0 995 1.1 93
2019-04-12 08:00:00 4.1 0 Calma 3 Este 0 994.6 0.6 93
2019-04-12 07:00:00 4.2 0 Calma 4 Este 0 994.1 0.3 93
2019-04-12 06:00:00 4.8 0 Calma 5 Oeste 0 993.9 0 93
2019-04-12 05:00:00 5.1 2 Oeste 4 Oeste 0 994 0 93
2019-04-12 04:00:00 5.9 0 Calma 6 Este 0 993.8 -0.2 92
2019-04-12 03:00:00 6.9 0 Calma 2 Oeste 0 993.9 0.1 91
2019-04-12 02:00:00 8.4 2 Sudeste 4 Este 0 994 0.3 87
2019-04-12 01:00:00 9.4 3 Sudoeste 6 Sudoeste 0 994 0.5 77
2019-04-12 00:00:00 12 0 Calma 13 Sur 0 993.8 1.1 61
2019-04-11 23:00:00 13.3 3 Este 12 Este 0 993.7 1.7 50
2019-04-11 22:00:00 14.7 5 Norte 17 Este 0 993.5 1.3 43
2019-04-11 21:00:00 15.7 4 Este 13 Este 0 992.7 0.5 41
2019-04-11 20:00:00 16.9 0 Calma 10 Noroeste 0 992 -0.4 41
2019-04-11 19:00:00 17.1 7 Oeste 15 Sudoeste 0 992.2 -0.7 36
2019-04-11 18:00:00 17.4 8 Sudoeste 17 Oeste 0 992.2 -1.2 36
2019-04-11 17:00:00 18 0 Calma 13 Sur 0 992.4 -1.5 32
2019-04-11 16:00:00 18 0 Calma 17 Sudeste 0 992.9 -1.7 30
2019-04-11 15:00:00 19.4 5 Oeste 14 Sudoeste 0 993.4 -1.5 30
2019-04-11 14:00:00 18.3 5 Sudeste 16 Sudeste 0 993.9 -1 33
2019-04-11 13:00:00 15.7 6 Este 16 Sudeste 0 994.6 -0.3 40
2019-04-11 12:00:00 14.1 7 Este 15 Este 0 994.9 0.2 50
2019-04-11 11:00:00 11.9 6 Este 17 Este 0 994.9 0.6 63
2019-04-11 10:00:00 10.1 8 Este 15 Sudeste 0 994.9 1.2 84
2019-04-11 09:00:00 6.8 0 Calma 5 Sudeste 0 994.7 1.1 94
2019-04-11 08:00:00 4.4 0 Calma 4 Sudeste 0 994.3 0.9 94
2019-04-11 07:00:00 4.3 3 Noroeste 5 Noroeste 0 993.7 0.8 94
2019-04-11 06:00:00 5.1 0 Calma 3 Sur 0 993.6 0.5 94
2019-04-11 05:00:00 5.3 0 Calma 5 Este 0 993.4 0.2 93
2019-04-11 04:00:00 6 0 Calma 8 Este 0 992.9 -0.3 93
2019-04-11 03:00:00 6.9 0 Calma 4 Sudoeste 0 993.1 -0.4 91
2019-04-11 02:00:00 8.2 4 Sudoeste 6 Sudoeste 0 993.2 -0.1 87
2019-04-11 01:00:00 8.8 0 Calma 9 Este 0 993.2 1.5 83
2019-04-11 00:00:00 10.2 3 Este 14 Este 0 993.5 3.1 73
2019-04-10 23:00:00 10.5 10 Este 28 Este 0 993.3 3.4 68
2019-04-10 22:00:00 12.1 0 Calma 12 Noroeste 0 991.7 2.2 55
2019-04-10 21:00:00 14 12 Oeste 29 Oeste 0 990.4 0.7 45
2019-04-10 20:00:00 15.9 20 Oeste 32 Oeste 0 989.9 -0.4 39
2019-04-10 19:00:00 17.4 18 Oeste 30 Oeste 0 989.5 -1.8 39
2019-04-10 18:00:00 18.5 18 Oeste 27 Oeste 0 989.7 -2.2 41
2019-04-10 17:00:00 16.6 15 Oeste 24 Oeste 0 990.3 -1.9 44
2019-04-10 16:00:00 15.7 11 Oeste 26 Sudoeste 0 991.3 -1.4 46
2019-04-10 15:00:00 14.8 12 Oeste 24 Oeste 0 991.9 -0.9 51
2019-04-10 14:00:00 14.9 15 Oeste 23 Oeste 0 992.2 -0.9 53
2019-04-10 13:00:00 12.8 15 Sudoeste 33 Sudoeste 0 992.7 -0.3 60
2019-04-10 12:00:00 13.1 19 Sudoeste 27 Sudoeste 0 992.8 -0.1 62
2019-04-10 11:00:00 12 16 Oeste 26 Oeste 0 993.1 0.6 65
2019-04-10 10:00:00 11.4 14 Oeste 21 Oeste 0 993 0.7 69
2019-04-10 09:00:00 10.1 6 Noroeste 15 Oeste 0 992.9 0.7 78
2019-04-10 08:00:00 9 0 Calma 21 Sudoeste 0 992.5 0.1 80
2019-04-10 07:00:00 8.2 9 Noroeste 23 Sudoeste 0 992.3 -0.1 85
2019-04-10 06:00:00 8.4 10 Oeste 21 Oeste 0 992.2 -0.4 80
2019-04-10 05:00:00 7.4 8 Oeste 20 Sudoeste 0 992.4 -0.5 91
2019-04-10 04:00:00 9.9 15 Sudoeste 23 Sudoeste 0 992.4 -0.4 76
2019-04-10 03:00:00 10.4 16 Sudoeste 22 Sudoeste 0 992.6 -0.1 81
2019-04-10 02:00:00 9.3 3 Oeste 5 Oeste 0 992.9 0.5 92
2019-04-10 01:00:00 9.2 3 Sudoeste 8 Oeste 0 992.8 1 90
2019-04-10 00:00:00 10.1 0 Calma 19 Sudoeste 0 992.7 1.6 84
2019-04-09 23:00:00 11.8 14 Sudoeste 23 Sudoeste 0 992.4 2 71
2019-04-09 22:00:00 12.5 17 Sudoeste 28 Sudoeste 0 991.8 1.6 67
2019-04-09 21:00:00 13.5 16 Oeste 30 Sudoeste 0 991.1 0.9 64
2019-04-09 20:00:00 13.8 21 Sudoeste 40 Oeste 0 990.4 -0.5 63
2019-04-09 19:00:00 15.5 19 Oeste 41 Oeste 0 990.2 -0.9 52
2019-04-09 18:00:00 16.9 21 Oeste 42 Oeste 0 990.2 -1.9 52
2019-04-09 17:00:00 14.9 16 Oeste 44 Oeste 0.5 990.9 -1.3 71
2019-04-09 16:00:00 16.7 22 Sudoeste 39 Oeste 0 991.1 -2.3 53
2019-04-09 15:00:00 14 10 Oeste 33 Noroeste 2.1 992.1 -1.7 80
2019-04-09 14:00:00 15.4 15 Oeste 24 Oeste 0 992.2 -1.6 55
2019-04-09 13:00:00 13.6 10 Noroeste 21 Oeste 0.1 993.4 -0.7 76
2019-04-09 12:00:00 12.2 11 Oeste 20 Oeste 0 993.8 -0.1 70
2019-04-09 11:00:00 12.4 6 Oeste 15 Noroeste 0 993.8 0.1 76
2019-04-09 10:00:00 10.2 5 Noroeste 9 Noroeste 0 994.1 0.9 89
2019-04-09 09:00:00 9.6 3 Noroeste 8 Noroeste 0 993.9 0.9 91
2019-04-09 08:00:00 9.2 5 Noroeste 14 Oeste 0 993.7 0.8 91
2019-04-09 07:00:00 9.4 8 Noroeste 15 Noroeste 0 993.2 0.7 93
2019-04-09 06:00:00 8.5 4 Noroeste 13 Oeste 0 993 0.3 93
2019-04-09 05:00:00 8.7 5 Oeste 8 Oeste 0 992.9 0.6 93
2019-04-09 04:00:00 9.9 3 Noroeste 7 Oeste 0 992.5 0.4 90
2019-04-09 03:00:00 10.6 3 Oeste 18 Oeste 0 992.7 0.9 87
2019-04-09 02:00:00 11.7 10 Oeste 24 Oeste 0 992.3 0.6 85
2019-04-09 01:00:00 12.1 19 Oeste 38 Oeste 1.8 992.1 1.4 87
2019-04-09 00:00:00 12.6 10 Oeste 21 Oeste 0.6 991.8 1.6 92
2019-04-08 23:00:00 11 18 Sudoeste 44 Oeste 4.8 991.7 1.7 91
2019-04-08 22:00:00 13.2 12 Oeste 26 Oeste 0 990.7 0.9 84
2019-04-08 21:00:00 13.7 14 Oeste 32 Sudoeste 0 990.2 0.7 82
2019-04-08 20:00:00 14.3 21 Sudoeste 33 Sudoeste 0.2 990 -0.1 83
2019-04-08 19:00:00 14.9 14 Sudoeste 31 Sudoeste 0 989.8 -0.7 77
2019-04-08 18:00:00 15.8 15 Sudoeste 32 Oeste 0 989.5 -1.9 71
2019-04-08 17:00:00 16.2 21 Sudoeste 37 Sudoeste 0 990.1 -1.7 69
2019-04-08 16:00:00 15.9 19 Sudoeste 33 Oeste 0 990.5 -1.5 70
2019-04-08 15:00:00 16.5 12 Oeste 23 Oeste 4.6 991.4 -0.5 84
2019-04-08 14:00:00 13.8 15 Oeste 23 Oeste 0.9 991.8 0 87
2019-04-08 13:00:00 13.7 16 Sudoeste 32 Sudoeste 1.9 992 0.2 87
2019-04-08 12:00:00 13.9 14 Sudoeste 25 Oeste 0.1 991.9 0 78
2019-04-08 11:00:00 14.5 15 Oeste 23 Sudoeste 0 991.8 0.4 78
2019-04-08 10:00:00 13.2 14 Oeste 24 Oeste 0 991.8 0.9 85
2019-04-08 09:00:00 12.9 13 Oeste 27 Oeste 0.9 991.9 1.1 84
2019-04-08 08:00:00 12.9 11 Oeste 19 Oeste 0.1 991.4 0.3 88
2019-04-08 07:00:00 12.7 6 Oeste 18 Sudoeste 0.3 990.9 -0.3 92
2019-04-08 06:00:00 12.8 8 Oeste 15 Oeste 1.8 990.8 -0.8 93
2019-04-08 05:00:00 12.7 5 Sudoeste 14 Sudoeste 0.2 991.1 -0.8 93
2019-04-08 04:00:00 12.5 6 Oeste 14 Oeste 0.1 991.2 -1 93
2019-04-08 03:00:00 12.2 0 Calma -- -- 0 991.6 -0.3 93
2019-04-08 02:00:00 12.1 0 Calma -- -- 0 991.9 0.2 93
2019-04-08 01:00:00 12 0 Calma 0 Calma 0.1 992.2 0.9 93
2019-04-08 00:00:00 11.9 0 Calma -- -- 0.9 991.9 0.6 93
2019-04-07 23:00:00 11.8 0 Calma 4 Este 1.4 991.7 0.5 93
2019-04-07 22:00:00 11.8 0 Calma 5 Este 0.5 991.3 0.2 93
2019-04-07 21:00:00 11.9 0 Calma 0 Calma 0.5 991.3 0.4 93
2019-04-07 20:00:00 11.8 3 Noroeste 18 Oeste 0.4 991.2 0.5 92
2019-04-07 19:00:00 12.2 11 Oeste 21 Oeste 0.1 991.1 0.1 87
2019-04-07 18:00:00 13 12 Sudoeste 23 Oeste 0 990.9 -0.1 69
2019-04-07 17:00:00 14.6 14 Oeste 31 Oeste 0 990.7 -0.5 57
2019-04-07 16:00:00 15.1 18 Oeste 36 Sudoeste 0 991 -0.3 57
2019-04-07 15:00:00 15.2 14 Oeste 27 Oeste 0 991 0 53
2019-04-07 14:00:00 14.5 13 Oeste 24 Sudoeste 0 991.2 0.5 59
2019-04-07 13:00:00 12.9 14 Sudoeste 22 Oeste 0 991.3 1.2 66
2019-04-07 12:00:00 12.7 10 Oeste 18 Oeste 0 991 1.3 70
2019-04-07 11:00:00 10.8 11 Oeste 19 Noroeste 0 990.7 1.8 77
2019-04-07 10:00:00 9.9 5 Oeste 10 Sudoeste 0 990.1 2.2 85
2019-04-07 09:00:00 8.7 3 Norte 17 Oeste 0 989.7 2.2 90
2019-04-07 08:00:00 8.6 12 Oeste 25 Oeste 0 988.9 1.8 87
2019-04-07 07:00:00 8.6 20 Sudoeste 48 Oeste 0.3 987.9 0.8 87
2019-04-07 06:00:00 8.9 19 Oeste 30 Oeste 0 987.5 0.5 81
2019-04-07 05:00:00 8.8 19 Oeste 38 Oeste 0 987.1 0 80
2019-04-07 04:00:00 9 18 Oeste 28 Oeste 0 987.1 -0.2 84
2019-04-07 03:00:00 8.9 11 Oeste 19 Oeste 0 987 0.1 86
2019-04-07 02:00:00 9 13 Oeste 22 Sudoeste 0 987.1 0.2 84
2019-04-07 01:00:00 8.5 5 Sudoeste 10 Sudoeste 0 987.3 1 91
2019-04-07 00:00:00 8.7 4 Sudoeste 19 Sudoeste 0 986.9 1.4 85
2019-04-06 23:00:00 9.4 12 Sudoeste 19 Sudoeste 0 986.9 2.1 83
2019-04-06 22:00:00 8.1 7 Oeste 9 Oeste 0 986.3 1.9 94
2019-04-06 21:00:00 8.1 2 Sudeste 8 Sudoeste 0 985.5 2 91
2019-04-06 20:00:00 8.7 6 Sudoeste 20 Sudoeste 0.6 984.8 2.2 87
2019-04-06 19:00:00 9.3 12 Sudoeste 26 Oeste 2.1 984.4 1.3 87
2019-04-06 18:00:00 10.3 19 Oeste 38 Oeste 2.4 983.5 0 76
2019-04-06 17:00:00 13.2 28 Sudoeste 42 Oeste 0 982.6 -1.5 60
2019-04-06 16:00:00 12.3 21 Sudoeste 38 Oeste 0 983.1 -1.5 61
2019-04-06 15:00:00 13 19 Oeste 36 Oeste 0 983.5 -1.6 67
2019-04-06 14:00:00 11.6 26 Oeste 37 Oeste 0.4 984.1 -0.7 64
2019-04-06 13:00:00 10.9 17 Oeste 30 Oeste 0 984.6 -0.2 77
2019-04-06 12:00:00 9.8 13 Oeste 26 Oeste 0.4 985.1 0.7 88
2019-04-06 11:00:00 8.6 12 Oeste 29 Oeste 0.9 984.8 0.8 91
2019-04-06 10:00:00 9 10 Oeste 28 Sudoeste 0 984.8 1.1 85
2019-04-06 09:00:00 7.9 17 Sudoeste 31 Sudoeste 0 984.4 1 86
2019-04-06 08:00:00 7.7 10 Sudoeste 26 Oeste 0 984 0.9 87
2019-04-06 07:00:00 7.8 15 Oeste 28 Sudoeste 0 983.7 0.4 87
2019-04-06 06:00:00 7.8 13 Oeste 23 Sudoeste 0.1 983.4 -0.1 88
2019-04-06 05:00:00 7.5 14 Oeste 24 Sudoeste 0 983.1 -0.3 88
2019-04-06 04:00:00 7.5 13 Oeste 28 Oeste 0 983.3 0.4 85
2019-04-06 03:00:00 7.7 15 Oeste 27 Sudoeste 0 983.5 1.3 85
2019-04-06 02:00:00 8 13 Oeste 21 Oeste 0 983.4 1.6 85
2019-04-06 01:00:00 7.9 14 Oeste 26 Sudoeste 0 982.9 2.3 81
2019-04-06 00:00:00 8.1 16 Oeste 36 Oeste 0 982.2 2.8 77
2019-04-05 23:00:00 8.9 20 Oeste 43 Oeste 0 981.8 2.9 68
2019-04-05 22:00:00 9.9 22 Sudoeste 39 Sudoeste 0 980.6 2.4 64
2019-04-05 21:00:00 11 13 Oeste 24 Oeste 0 979.4 1.2 50
2019-04-05 20:00:00 12.4 19 Oeste 38 Oeste 0 978.9 2 47
2019-04-05 19:00:00 12 12 Oeste 27 Sudoeste 0 978.2 0.4 62
2019-04-05 18:00:00 10.8 13 Sudoeste 59 Oeste 1.2 978.2 0 72
2019-04-05 17:00:00 13.5 0 Calma 21 Oeste 1.1 976.9 -0.6 65
2019-04-05 16:00:00 11.4 11 Sudoeste 22 Sudoeste 0 977.8 -0.3 70
2019-04-05 15:00:00 9.7 17 Oeste 62 Oeste 1.7 978.2 -0.3 88
2019-04-05 14:00:00 11.7 15 Sudoeste 35 Sudoeste 0 977.5 -1.6 74
2019-04-05 13:00:00 11.5 10 Sudoeste 20 Sudoeste 0 978.1 -0.6 75
2019-04-05 12:00:00 9.7 3 Sur 22 Sudeste 0.8 978.5 0.2 83
2019-04-05 11:00:00 8.8 4 Sudoeste 18 Sudoeste 2.7 979.1 0.4 90
2019-04-05 10:00:00 9 8 Oeste 16 Sudoeste 1.9 978.7 -0.2 88
2019-04-05 09:00:00 10.1 5 Oeste 11 Oeste 0.2 978.3 -0.9 74
2019-04-05 08:00:00 10.7 0 Calma 15 Oeste 0 978.7 -0.9 59
2019-04-05 07:00:00 10.7 9 Sudoeste 20 Sudoeste 0 978.9 -1 59
2019-04-05 06:00:00 10.5 10 Sudoeste 21 Sudoeste 0 979.2 -1 60
2019-04-05 05:00:00 10.5 6 Oeste 15 Sudoeste 0 979.6 -0.6 60
2019-04-05 04:00:00 10 9 Oeste 20 Oeste 0 979.9 -0.2 59
2019-04-05 03:00:00 10.2 12 Oeste 25 Oeste 0 980.2 0.3 53
2019-04-05 02:00:00 10.4 17 Oeste 36 Oeste 0 980.2 0.6 50
2019-04-05 01:00:00 10.8 11 Oeste 27 Oeste 0 980.1 1.3 45
2019-04-05 00:00:00 11.9 15 Oeste 30 Oeste 0 979.9 1.9 36
2019-04-04 23:00:00 13.2 14 Oeste 26 Oeste 0 979.6 1.8 31
2019-04-04 22:00:00 14 14 Oeste 22 Oeste 0 978.8 1 26
2019-04-04 21:00:00 15.2 13 Oeste 28 Oeste 0 978 0 24
2019-04-04 20:00:00 17.5 17 Oeste 30 Sudoeste 0 977.8 -0.7 22
2019-04-04 19:00:00 18.3 21 Sudoeste 35 Oeste 0 977.8 -1.2 21
2019-04-04 18:00:00 19.8 18 Oeste 30 Oeste 0 978 -1.6 21
2019-04-04 17:00:00 19.2 16 Sudoeste 29 Oeste 0 978.5 -1.7 21
2019-04-04 16:00:00 18.9 15 Oeste 31 Oeste 0 979 -1.7 22
2019-04-04 15:00:00 18.3 6 Sudoeste 19 Sudoeste 0 979.6 -1.5 22
2019-04-04 14:00:00 18.4 5 Sudoeste 20 Sudoeste 0 980.2 -0.8 23
2019-04-04 13:00:00 16.6 9 Sudeste 23 Este 0 980.7 -0.5 25
2019-04-04 12:00:00 16 4 Este 24 Este 0 981.1 0.1 30
2019-04-04 11:00:00 13.6 9 Este 18 Este 0 981 0.7 33
2019-04-04 10:00:00 10.9 0 Calma 5 Sudeste 0 981.2 1.5 52
2019-04-04 09:00:00 5.5 0 Calma 5 Sur 0 981 1.9 81
2019-04-04 08:00:00 2.5 0 Calma 6 Este 0 980.3 1.1 83
2019-04-04 07:00:00 3.6 0 Calma 4 Este 0 979.7 0.2 74
2019-04-04 06:00:00 4.9 3 Oeste 7 Oeste 0 979.1 -0.5 61
2019-04-04 05:00:00 6.1 2 Oeste 9 Sudoeste 0 979.2 -1 53
2019-04-04 04:00:00 8 5 Oeste 10 Noroeste 0 979.5 -0.6 46
2019-04-04 03:00:00 9.3 2 Oeste 10 Norte 0 979.6 -0.6 43
2019-04-04 02:00:00 9.1 0 Calma 9 Sudoeste 0 980.2 0.1 44
2019-04-04 01:00:00 12.1 2 Sudoeste 15 Noroeste 0 980.1 0.5 37
2019-04-04 00:00:00 13.5 12 Oeste 19 Noroeste 0 980.2 1.4 37
2019-04-03 23:00:00 14.3 10 Oeste 15 Oeste 0 980.1 1.9 38
2019-04-03 22:00:00 14.3 8 Oeste 15 Oeste 0 979.6 1.2 37
2019-04-03 21:00:00 16.9 12 Oeste 34 Sudoeste 0 978.8 -0.2 30
2019-04-03 20:00:00 20.3 23 Oeste 41 Sudoeste 0 978.2 -1.3 25
2019-04-03 19:00:00 21.7 24 Oeste 38 Sudoeste 0 978.4 -2 24
2019-04-03 18:00:00 22.4 24 Oeste 41 Oeste 0 979 -2.7 24
2019-04-03 17:00:00 21.8 27 Oeste 46 Oeste 0 979.5 -3.2 22
2019-04-03 16:00:00 23.1 22 Sudoeste 41 Sudoeste 0 980.4 -3.4 23
2019-04-03 15:00:00 22.5 19 Oeste 35 Oeste 0 981.7 -3.1 27
2019-04-03 14:00:00 20.8 18 Oeste 29 Oeste 0 982.7 -2.6 31
2019-04-03 13:00:00 20.9 8 Oeste 18 Sudoeste 0 983.8 -2.2 38
2019-04-03 12:00:00 17.7 5 Sudoeste 10 Oeste 0 984.8 -1.8 52
2019-04-03 11:00:00 14.5 2 Norte 6 Sudeste 0 985.3 -1.5 63
2019-04-03 10:00:00 11.4 2 Sudeste 5 Este 0 986 -1 81
2019-04-03 09:00:00 7.9 2 Sudeste 5 Sudeste 0 986.6 -0.6 94
2019-04-03 08:00:00 7 0 Calma 3 Sudeste 0 986.8 -0.9 94
2019-04-03 07:00:00 7.3 0 Calma 0 Calma 0 987 -1.1 94
2019-04-03 06:00:00 7.4 0 Calma 4 Sudeste 0 987.2 -1.7 94
2019-04-03 05:00:00 7.9 0 Calma 4 Sudeste 0 987.7 -1.7 93
2019-04-03 04:00:00 8.7 0 Calma 4 Oeste 0 988.1 -1.4 91
2019-04-03 03:00:00 9.3 0 Calma 6 Sudoeste 0 988.9 -0.7 89
2019-04-03 02:00:00 10.2 0 Calma 5 Sur 0 989.4 -0.2 87
2019-04-03 01:00:00 11.4 0 Calma 5 Sudeste 0 989.5 0 77
2019-04-03 00:00:00 13.1 0 Calma 8 Oeste 0 989.6 0.7 68
2019-04-02 23:00:00 15.4 9 Oeste 12 Oeste 0 989.6 0.8 54
2019-04-02 22:00:00 15.2 0 Calma 9 Oeste 0 989.5 0.7 56
2019-04-02 21:00:00 17.2 5 Oeste 17 Oeste 0 988.9 -0.1 43
2019-04-02 20:00:00 19.8 12 Oeste 22 Oeste 0 988.8 -0.8 35
2019-04-02 19:00:00 21.4 12 Oeste 24 Oeste 0 988.8 -1.6 32
2019-04-02 18:00:00 21.7 9 Oeste 18 Oeste 0 989 -2.1 31
2019-04-02 17:00:00 21.4 6 Oeste 24 Oeste 0 989.6 -2.4 34
2019-04-02 16:00:00 20.4 5 Sudoeste 19 Sudoeste 0 990.4 -2.5 35
2019-04-02 15:00:00 19.7 8 Sudoeste 17 Sudoeste 0 991.1 -2.4 38
2019-04-02 14:00:00 19.4 4 Sur 16 Sudoeste 0.1 992 -1.2 38
2019-04-02 13:00:00 17.5 6 Sudoeste 13 Sudoeste 0 992.9 0 49
2019-04-02 12:00:00 15.4 3 Sur 10 Sudoeste 0 993.5 1 62
2019-04-02 11:00:00 14.3 3 Noroeste 9 Oeste 0 993.2 1 70
2019-04-02 10:00:00 13.2 2 Norte 5 Noroeste 0 992.9 1 83
2019-04-02 09:00:00 12.8 3 Sudoeste 6 Sudoeste 0 992.5 0.7 88
2019-04-02 08:00:00 12.2 4 Sudoeste 9 Sudoeste 0 992.2 0.3 89
2019-04-02 07:00:00 12 0 Calma 6 Oeste 0 991.9 -0.4 90
2019-04-02 06:00:00 11.9 0 Calma 4 Sudeste 0 991.8 -0.7 90
2019-04-02 05:00:00 11.7 0 Calma 4 Sudeste 0 991.9 -0.7 91
2019-04-02 04:00:00 11.3 0 Calma 5 Oeste 0 992.3 -0.4 90
2019-04-02 03:00:00 11.8 0 Calma 5 Oeste 0 992.5 0 90
2019-04-02 02:00:00 12 0 Calma 5 Sudoeste 0 992.6 0.6 90
2019-04-02 01:00:00 13.1 3 Sudoeste 6 Noroeste 0.1 992.7 1.5 82
2019-04-02 00:00:00 13 0 Calma 10 Sudoeste 0 992.5 2.3 81
2019-04-01 23:00:00 13.3 8 Sudoeste 15 Oeste 0 992 2.4 78
2019-04-01 22:00:00 14.3 10 Oeste 14 Oeste 0 991.2 1.8 70
2019-04-01 21:00:00 15 9 Oeste 17 Oeste 0 990.2 1.1 65
2019-04-01 20:00:00 16.1 10 Oeste 18 Sudoeste 0 989.6 0.5 55
2019-04-01 19:00:00 16.8 11 Oeste 26 Sudoeste 0 989.4 0.3 58
2019-04-01 18:00:00 17.4 10 Oeste 17 Oeste 0 989.1 0.1 49
2019-04-01 17:00:00 16.7 6 Oeste 30 Oeste 0 989.1 -0.4 63
2019-04-01 16:00:00 16.6 24 Oeste 35 Oeste 0 989.1 -1 53
2019-04-01 15:00:00 20.6 9 Sudoeste 19 Oeste 0 989 -1.4 38
2019-04-01 14:00:00 20.2 6 Oeste 17 Oeste 0 989.5 -0.7 40
2019-04-01 13:00:00 19.2 0 Calma 9 Oeste 0 990.1 0.6 48
2019-04-01 12:00:00 16.8 0 Calma 9 Este 0 990.4 1.4 57
2019-04-01 11:00:00 13.6 3 Este 9 Sudeste 0 990.2 1.5 79
2019-04-01 10:00:00 12.1 4 Este 8 Este 0 989.5 1.3 87
2019-04-01 09:00:00 11.4 0 Calma 5 Sur 0 989 0.9 91
2019-04-01 08:00:00 11.1 0 Calma 4 Sudeste 0 988.7 0.5 91
2019-04-01 07:00:00 11.3 0 Calma 3 Este 0 988.2 0 91
2019-04-01 06:00:00 11.5 0 Calma 4 Este 0 988.1 -0.1 91
2019-04-01 05:00:00 11.4 0 Calma 4 Sudoeste 0 988.2 -0.2 91
2019-04-01 04:00:00 11.7 0 Calma 5 Sudoeste 0 988.2 -0.1 91
2019-04-01 03:00:00 11.4 0 Calma 7 Sur 0 988.2 0.2 90
2019-04-01 02:00:00 11.8 0 Calma 6 Sur 0 988.4 0.7 92
2019-04-01 01:00:00 10.4 3 Oeste 7 Oeste 0 988.3 1 92
2019-04-01 00:00:00 10.2 0 Calma 4 Sudeste 0 988 1.8 92
2019-03-31 23:00:00 10.8 0 Calma 4 Oeste 0 987.7 1.8 90
2019-03-31 22:00:00 11.6 0 Calma 4 Sudeste 0 987.3 1.6 87
2019-03-31 21:00:00 13.1 0 Calma 13 Este 0 986.2 0.6 75
2019-03-31 20:00:00 15.9 7 Este 19 Este 0 985.9 -0.5 55
2019-03-31 19:00:00 16.9 12 Este 21 Este 0 985.7 -0.9 52
2019-03-31 18:00:00 17.5 8 Este 16 Este 0 985.6 -1.5 52
2019-03-31 17:00:00 16.6 6 Sudeste 14 Sudeste 0 986.4 -1.4 53
2019-03-31 16:00:00 15.4 9 Sudeste 19 Este 0 986.6 -1.9 59
2019-03-31 15:00:00 17.1 7 Este 17 Este 0 987.1 -1.7 62
2019-03-31 14:00:00 15.2 8 Este 16 Este 0 987.8 -0.9 67
2019-03-31 13:00:00 13.7 6 Este 13 Este 0 988.5 0.1 76
2019-03-31 12:00:00 12.5 3 Este 12 Este 0.3 988.8 0.5 87
2019-03-31 11:00:00 11.8 6 Este 14 Este 0.6 988.7 0.4 91
2019-03-31 10:00:00 11.2 6 Este 13 Este 0.9 988.4 0.1 92
2019-03-31 09:00:00 11.6 0 Calma 5 Sudeste 1.1 988.3 0.1 92
2019-03-31 08:00:00 11.9 0 Calma 6 Sudeste 0.7 988.3 -0.7 92
2019-03-31 07:00:00 11.9 3 Este 9 Sudoeste 0.6 988.3 -1.5 92
2019-03-31 06:00:00 12 0 Calma 4 Sur 2.7 988.2 -1.8 92
2019-03-31 05:00:00 12.1 0 Calma 3 Oeste 2.6 989 -1.1 92
2019-03-31 03:00:00 14.1 8 Oeste 22 Oeste 0 990 -0.3 74
2019-03-31 01:00:00 14.9 14 Oeste 20 Oeste 0 990.1 0.1 67
2019-03-31 00:00:00 14.7 11 Oeste 24 Sudoeste 0 990.7 0.9 67
2019-03-30 23:00:00 16 13 Oeste 26 Noroeste 0 990.3 1.7 59
2019-03-30 22:00:00 16.1 19 Noroeste 26 Oeste 0 990 2 56
2019-03-30 21:00:00 17.9 11 Oeste 23 Sudoeste 0 989.8 1.8 47
2019-03-30 20:00:00 19.3 17 Sudoeste 30 Oeste 0 988.6 0.3 40
2019-03-30 19:00:00 22.2 9 Oeste 16 Noroeste 0 988 -0.7 32
2019-03-30 18:00:00 23.5 6 Noroeste 16 Noroeste 0 988 -1.6 30
2019-03-30 17:00:00 24.6 4 Oeste 13 Sudoeste 0 988.3 -2.5 30
2019-03-30 16:00:00 25.3 4 Oeste 18 Este 0 988.7 -3.5 29
2019-03-30 15:00:00 24.3 2 Este 17 Sudeste 0 989.6 -3.7 31
2019-03-30 14:00:00 22.4 8 Este 23 Sudeste 0 990.8 -3.5 32
2019-03-30 13:00:00 20.4 9 Este 24 Este 0 992.2 -2.4 34
2019-03-30 12:00:00 18.8 8 Este 21 Sudeste 0 993.3 -1.7 37
2019-03-30 11:00:00 17.2 9 Este 23 Este 0 994.3 -0.6 39
2019-03-30 10:00:00 15.3 10 Este 22 Este 0 994.6 0 43
2019-03-30 09:00:00 13 9 Este 18 Este 0 995 0.4 56
2019-03-30 08:00:00 10.4 8 Este 13 Este 0 994.9 0 68
2019-03-30 07:00:00 9.2 8 Sudeste 13 Sudeste 0 994.6 -1 71
2019-03-30 06:00:00 6.4 0 Calma 7 Este 0 994.6 -1.4 80
2019-03-30 05:00:00 7.3 0 Calma 8 Sudeste 0 994.9 -1 81
2019-03-30 04:00:00 6.8 4 Oeste 5 Oeste 0 995.6 -0.6 74
2019-03-30 03:00:00 7.8 0 Calma 8 Este 0 996 -0.1 74
2019-03-30 02:00:00 9 3 Este 8 Sudeste 0 995.9 -0.2 72
2019-03-30 01:00:00 9.6 0 Calma 5 Este 0 996.2 0.5 65
2019-03-30 00:00:00 11.9 3 Este 8 Sur 0 996.1 0.9 60
2019-03-29 23:00:00 14.5 5 Sur 15 Oeste 0 996.1 1.8 54
2019-03-29 22:00:00 15.5 14 Oeste 22 Oeste 0 995.7 1.5 48
2019-03-29 21:00:00 16.4 12 Oeste 23 Oeste 0 995.2 1.1 40
2019-03-29 20:00:00 16.9 2 Sudoeste 6 Norte 0 994.3 0 33
2019-03-29 19:00:00 20.8 3 Norte 12 Noroeste 0 994.2 -0.7 29
2019-03-29 18:00:00 21.6 6 Noroeste 14 Norte 0 994.1 -1.4 27
2019-03-29 17:00:00 21.8 5 Este 11 Este 0 994.3 -2 27
2019-03-29 16:00:00 22.7 4 Nordeste 17 Sudeste 0 994.9 -2.3 27
2019-03-29 15:00:00 22 4 Nordeste 17 Este 0 995.5 -2.4 27
2019-03-29 14:00:00 20.4 4 Sudeste 24 Sudeste 0 996.3 -2.3 28
2019-03-29 13:00:00 20.7 6 Este 25 Sudeste 0 997.2 -1.7 32
2019-03-29 12:00:00 18.5 10 Este 24 Este 0 997.9 -0.9 33
2019-03-29 11:00:00 15.8 9 Este 21 Sudeste 0 998.6 -0.2 38
2019-03-29 10:00:00 14.8 8 Este 22 Sudeste 0 998.9 0.5 41
2019-03-29 09:00:00 11.4 2 Este 6 Este 0 998.8 1 48
2019-03-29 08:00:00 5.6 0 Calma 7 Sudeste 0 998.8 0.8 54
2019-03-29 07:00:00 4.6 0 Calma 6 Sudeste 0 998.4 0.6 54
2019-03-29 06:00:00 5.3 2 Sudeste 5 Sudeste 0 997.8 -0.1 52
2019-03-29 05:00:00 5.6 3 Sudeste 8 Sudeste 0 998 -0.3 49
2019-03-29 04:00:00 7.8 3 Sudeste 9 Sur 0 997.8 -0.8 47
2019-03-29 03:00:00 7.6 4 Sudeste 13 Sudeste 0 997.9 -0.9 47
2019-03-29 02:00:00 7.6 4 Sudeste 8 Sudeste 0 998.3 -0.4 47
2019-03-29 01:00:00 8.1 3 Sudeste 7 Sudeste 0 998.6 0 44
2019-03-29 00:00:00 9.7 3 Sur 6 Sur 0 998.8 1.3 41
2019-03-28 23:00:00 11.1 3 Este 12 Este 0 998.7 2.6 37
2019-03-28 22:00:00 12.9 2 Sudeste 17 Sudeste 0 998.6 2.9 31
2019-03-28 21:00:00 16 7 Este 19 Este 0 997.5 1.8 26
2019-03-28 20:00:00 16.7 4 Sudeste 19 Este 0 996.1 0.2 22
2019-03-28 19:00:00 20.6 11 Este 25 Este 0 995.7 -0.7 19
2019-03-28 18:00:00 22.3 6 Nordeste 28 Este 0 995.7 -1.6 18
2019-03-28 17:00:00 22.3 10 Este 31 Este 0 995.9 -2.4 17
2019-03-28 16:00:00 22.5 10 Este 28 Este 0 996.4 -3 17
2019-03-28 15:00:00 22 7 Este 26 Este 0 997.3 -3 17
2019-03-28 14:00:00 21.1 8 Sudeste 23 Sudeste 0 998.3 -2.7 19
2019-03-28 13:00:00 19.8 6 Sudeste 27 Sudeste 0 999.4 -1.8 21
2019-03-28 12:00:00 18.3 5 Este 25 Sudeste 0 1000.3 -0.6 25
2019-03-28 11:00:00 16.1 9 Este 21 Este 0 1001 0.3 29
2019-03-28 10:00:00 14.7 9 Este 20 Este 0 1001.2 1.3 36
2019-03-28 09:00:00 11.7 8 Este 18 Este 0 1000.9 1.1 46
2019-03-28 08:00:00 9.3 8 Sudeste 18 Sudeste 0 1000.7 1.1 57
2019-03-28 07:00:00 3.2 0 Calma 6 Este 0 999.9 0.5 83
2019-03-28 06:00:00 3.3 2 Este 8 Este 0 999.8 0.3 82
2019-03-28 05:00:00 4.1 3 Este 7 Este 0 999.6 -0.1 79
2019-03-28 04:00:00 5.4 0 Calma 8 Este 0 999.4 -0.2 76
2019-03-28 03:00:00 6.2 4 Este 8 Este 0 999.5 0.6 70
2019-03-28 02:00:00 7.2 0 Calma 5 Noroeste 0 999.7 1.1 69
2019-03-28 01:00:00 10 5 Oeste 15 Oeste 0 999.6 1.9 59
2019-03-28 00:00:00 12.8 13 Oeste 21 Oeste 0 998.9 2.5 54
2019-03-27 23:00:00 12 9 Oeste 14 Oeste 0 998.6 3.4 40
2019-03-27 22:00:00 13.3 4 Sudeste 9 Este 0 997.7 3 34
2019-03-27 21:00:00 11.8 2 Este 5 Este 0 996.4 2 32
2019-03-27 20:00:00 15.2 0 Calma 11 Este 0 995.2 0.9 26
2019-03-27 19:00:00 20.2 8 Este 21 Este 0 994.7 0 21
2019-03-27 18:00:00 21.7 4 Nordeste 26 Sudeste 0 994.4 -0.7 21
2019-03-27 17:00:00 21.3 13 Este 32 Este 0 994.3 -1.4 21
2019-03-27 16:00:00 21.3 15 Sudeste 33 Este 0 994.7 -1.8 22
2019-03-27 15:00:00 20.8 17 Este 33 Este 0 995.1 -1.7 23
2019-03-27 14:00:00 20.5 16 Este 37 Este 0 995.7 -1.3 25
2019-03-27 13:00:00 19.7 16 Este 37 Este 0 996.5 -0.4 28
2019-03-27 12:00:00 18.2 15 Este 33 Sudeste 0 996.8 0.1 32
2019-03-27 11:00:00 16.2 13 Este 44 Este 0 997 0.4 34
2019-03-27 10:00:00 15.3 20 Este 38 Este 0 996.9 1 37
2019-03-27 09:00:00 13.8 7 Este 19 Este 0 996.7 1.4 45
2019-03-27 08:00:00 10 10 Este 18 Este 0 996.6 2.2 52
2019-03-27 07:00:00 5.7 4 Este 13 Este 0 995.9 1.9 61
2019-03-27 06:00:00 6.9 0 Calma 9 Este 0 995.3 1.7 61
2019-03-27 05:00:00 7.7 3 Sudeste 13 Este 0 994.4 1.4 58
2019-03-27 04:00:00 10 5 Este 10 Sudeste 0 994 1.2 57
2019-03-27 03:00:00 8.5 2 Este 15 Sudeste 0 993.6 1 57
2019-03-27 02:00:00 12.4 9 Este 18 Este 0 993 1 53
2019-03-27 01:00:00 14.1 9 Sudeste 22 Este 0 992.8 1.4 52
2019-03-27 00:00:00 14.4 5 Este 15 Este 0 992.6 2.4 51
2019-03-26 23:00:00 15.7 6 Este 29 Este 0 992 3.1 46
2019-03-26 22:00:00 16.7 10 Este 22 Este 0 991.4 3.6 43
2019-03-26 21:00:00 17.7 12 Este 28 Este 0 990.2 3.1 37
2019-03-26 20:00:00 19.7 14 Este 31 Sudeste 0 988.9 2 30
2019-03-26 19:00:00 22.5 10 Sudeste 26 Sudeste 0 987.8 0.9 24
2019-03-26 18:00:00 25 14 Sudeste 30 Este 0 987.1 -0.2 21
2019-03-26 17:00:00 25.3 12 Este 33 Este 0 986.9 -0.8 19
2019-03-26 16:00:00 25.9 11 Este 42 Este 0 986.9 -1.5 19
2019-03-26 15:00:00 26 12 Este 40 Este 0 987.3 -1.7 19
2019-03-26 14:00:00 24.9 19 Este 40 Este 0 987.7 -1.8 19
2019-03-26 13:00:00 23.9 18 Este 39 Este 0 988.4 -0.8 19
2019-03-26 12:00:00 24.9 10 Este 35 Sudeste 0 989 -0.2 22
2019-03-26 11:00:00 21 15 Este 28 Este 0 989.5 0.5 27
2019-03-26 10:00:00 18.4 11 Sudeste 24 Este 0 989.2 0.1 37
2019-03-26 09:00:00 15.2 13 Sudeste 23 Sudeste 0 989.2 0.2 42
2019-03-26 08:00:00 12.1 3 Este 11 Este 0 989 0.2 50
2019-03-26 07:00:00 11.6 6 Este 19 Este 0 989.1 -0.1 50
2019-03-26 06:00:00 11.7 9 Este 17 Este 0 989 -0.7 50
2019-03-26 05:00:00 11.1 5 Este 10 Sudeste 0 988.8 -1.2 56
2019-03-26 04:00:00 10.7 5 Este 10 Sudeste 0 989.2 -1 58
2019-03-26 03:00:00 12.3 4 Sudeste 8 Este 0 989.7 -0.5 55
2019-03-26 02:00:00 11.6 5 Este 13 Sudeste 0 990 -0.2 51
2019-03-26 01:00:00 12.3 5 Este 10 Sudeste 0 990.2 0.4 46
2019-03-26 00:00:00 15.1 4 Sudeste 10 Este 0 990.2 1.1 40
2019-03-25 23:00:00 14.7 3 Sudeste 8 Sudeste 0 990.2 1.4 40
2019-03-25 22:00:00 13.8 2 Sudeste 11 Este 0 989.8 1 43
2019-03-25 21:00:00 15 0 Calma 2 Sudeste 0 989.1 0.2 39
2019-03-25 20:00:00 18.4 2 Sudeste 13 Este 0 988.8 -0.5 30
2019-03-25 19:00:00 23.2 9 Este 23 Este 0 988.8 -1.1 25
2019-03-25 18:00:00 24.2 11 Este 25 Este 0 988.9 -2.1 24
2019-03-25 17:00:00 24.2 12 Este 24 Este 0 989.3 -2.9 24
2019-03-25 16:00:00 24.3 9 Este 28 Este 0 989.9 -3.5 24
2019-03-25 15:00:00 23.9 8 Este 27 Este 0 991 -3.4 25
2019-03-25 14:00:00 22.9 12 Este 27 Este 0 992.2 -2.8 26
2019-03-25 13:00:00 21.4 11 Este 27 Este 0 993.4 -2 27
2019-03-25 12:00:00 20.6 13 Este 30 Este 0 994.4 -0.9 30
2019-03-25 11:00:00 19.6 10 Este 23 Este 0 995 -0.4 35
2019-03-25 10:00:00 15.7 5 Este 17 Este 0 995.4 0.5 44
2019-03-25 09:00:00 12.8 5 Este 12 Sudeste 0 995.3 0.6 56
2019-03-25 08:00:00 6.9 0 Calma 6 Este 0 995.4 0.6 82
2019-03-25 07:00:00 4.9 3 Sudeste 5 Este 0 994.9 -0.3 91
2019-03-25 06:00:00 6.6 0 Calma 4 Noroeste 0 994.7 -0.5 88
2019-03-25 05:00:00 6.7 3 Oeste 8 Oeste 0 994.8 -0.6 81
2019-03-25 04:00:00 8.5 0 Calma 4 Este 0 995.2 -0.4 79
2019-03-25 03:00:00 10.1 0 Calma 3 Sudeste 0 995.2 -0.4 71
2019-03-25 02:00:00 12.3 0 Calma 7 Este 0 995.4 -0.3 61
2019-03-25 01:00:00 13.5 0 Calma 9 Sudeste 0 995.6 0 57
2019-03-25 00:00:00 12.6 0 Calma 4 Este 0 995.6 0.4 60
2019-03-24 23:00:00 13.6 0 Calma 7 Oeste 0 995.7 1.2 56
2019-03-24 22:00:00 13.4 2 Sudoeste 6 Sudoeste 0 995.6 1.4 52
2019-03-24 21:00:00 17.4 3 Sudoeste 14 Sur 0 995.2 1.2 45
2019-03-24 20:00:00 18.7 11 Sur 26 Sudeste 0 994.5 0.5 39
2019-03-24 19:00:00 20.4 3 Este 18 Este 0 994.2 -0.3 36
2019-03-24 18:00:00 21.7 8 Este 19 Este 0 994 -1.3 34
2019-03-24 17:00:00 22.6 5 Este 20 Sudeste 0 994 -2 34
2019-03-24 16:00:00 21.9 5 Este 16 Sudeste 0 994.5 -2 34
2019-03-24 15:00:00 20.6 3 Este 17 Este 0 995.3 -1.7 39
2019-03-24 14:00:00 20 5 Este 22 Sudeste 0 996 -1.1 42
2019-03-24 13:00:00 18.7 10 Este 21 Este 0 996.5 -0.1 43
2019-03-24 12:00:00 18 15 Este 27 Este 0 997 0.7 45
2019-03-24 11:00:00 17.4 12 Este 27 Este 0 997.1 1.1 46
2019-03-24 10:00:00 16.1 12 Este 26 Este 0 996.6 0.8 50
2019-03-24 09:00:00 14 8 Este 17 Este 0 996.3 0.6 57
2019-03-24 08:00:00 11.5 9 Este 15 Este 0 996 0.4 63
2019-03-24 07:00:00 11.7 10 Este 19 Este 0 995.8 0.2 61
2019-03-24 06:00:00 11.7 7 Este 15 Este 0 995.7 -0.2 64
2019-03-24 05:00:00 11.8 7 Este 14 Este 0 995.6 -0.4 67
2019-03-24 04:00:00 10.4 2 Sudeste 9 Sudeste 0 995.6 -0.8 74
2019-03-24 03:00:00 8.9 0 Calma 6 Este 0 995.9 -1 76
2019-03-24 02:00:00 9.8 3 Este 11 Sudeste 0 996 -0.8 74
2019-03-24 01:00:00 10.9 4 Sudeste 12 Este 0 996.4 -0.9 69
2019-03-24 00:00:00 12 9 Este 16 Este 0 996.9 0.1 63
2019-03-23 23:00:00 13.5 8 Este 28 Sudeste 0 996.8 0.4 57
2019-03-23 22:00:00 14.9 18 Este 32 Este 0 997.3 1.4 52
2019-03-23 21:00:00 15.4 21 Sudeste 36 Sudeste 0 996.8 1.6 48
2019-03-23 20:00:00 15.9 19 Este 38 Este 0 996.4 1.2 44
2019-03-23 19:00:00 16.9 21 Este 46 Este 0 995.9 0.7 41
2019-03-23 18:00:00 17.3 22 Este 53 Este 0 995.2 -0.5 38
2019-03-23 17:00:00 19.7 25 Este 50 Este 0 995.2 -0.8 34
2019-03-23 16:00:00 20.6 22 Este 45 Sudeste 0 995.2 -2.3 32
2019-03-23 15:00:00 20.4 27 Este 42 Este 0 995.7 -2.4 30
2019-03-23 14:00:00 22.2 13 Este 37 Este 0 996 -2.7 31
2019-03-23 13:00:00 20.6 12 Este 29 Este 0 997.5 -1.6 32
2019-03-23 12:00:00 18.7 12 Este 34 Este 0 998.1 -0.9 35
2019-03-23 11:00:00 17.8 11 Este 35 Sudeste 0 998.7 -0.6 39
2019-03-23 10:00:00 16.1 12 Este 29 Este 0 999.1 0 45
2019-03-23 09:00:00 12.9 9 Este 16 Este 0 999 0 60
2019-03-23 08:00:00 7.7 3 Este 11 Este 0 999.3 0.2 71
2019-03-23 07:00:00 5.7 0 Calma 6 Este 0 999.1 -0.1 78
2019-03-23 06:00:00 6 0 Calma 4 Este 0 999 -0.5 75
2019-03-23 05:00:00 6.4 3 Oeste 7 Este 0 999.1 -0.7 67
2019-03-23 04:00:00 8.5 3 Sudeste 5 Sudeste 0 999.2 -0.4 67
2019-03-23 03:00:00 8.3 0 Calma 7 Sudeste 0 999.5 0 63
2019-03-23 02:00:00 9.4 6 Este 9 Este 0 999.8 0.3 56
2019-03-23 01:00:00 9.3 3 Este 9 Este 0 999.6 0.8 56
2019-03-23 00:00:00 10.3 4 Este 8 Este 0 999.5 1.7 51
2019-03-22 23:00:00 11 3 Sudeste 6 Sudeste 0 999.5 2.4 47
2019-03-22 22:00:00 11.3 3 Sudeste 8 Sur 0 998.8 1.9 43
2019-03-22 21:00:00 11.8 3 Este 8 Norte 0 997.8 1 37
2019-03-22 20:00:00 14.6 0 Calma 3 Sudeste 0 997.1 0 31
2019-03-22 19:00:00 17.8 4 Sudeste 14 Este 0 996.9 -0.8 25
2019-03-22 18:00:00 19.9 11 Este 21 Este 0 996.8 -1.4 22
2019-03-22 17:00:00 20.4 4 Este 21 Este 0 997.1 -1.9 21
2019-03-22 16:00:00 20.9 8 Este 24 Este 0 997.7 -2 21
2019-03-22 15:00:00 19.2 11 Este 24 Este 0 998.2 -2.2 22
2019-03-22 14:00:00 18.4 11 Este 26 Sudeste 0 999 -1.7 25
2019-03-22 13:00:00 17.9 10 Este 25 Este 0 999.7 -1.6 25
2019-03-22 12:00:00 16.7 8 Este 22 Este 0 1000.4 -0.8 29
2019-03-22 11:00:00 14.9 7 Sudeste 20 Sudeste 0 1000.7 -0.3 36
2019-03-22 10:00:00 11.6 11 Sudeste 22 Este 0 1001.3 0.6 43
2019-03-22 09:00:00 8.1 3 Noroeste 6 Oeste 0 1001.2 0.7 60
2019-03-22 08:00:00 3.5 0 Calma 8 Oeste 0 1001 0.5 81
2019-03-22 07:00:00 0.3 4 Oeste 6 Oeste 0 1000.7 0.3 78
2019-03-22 06:00:00 1.7 0 Calma 4 Sudeste 0 1000.5 0 80
2019-03-22 05:00:00 2.7 0 Calma 4 Oeste 0 1000.5 -0.1 75
2019-03-22 04:00:00 3 0 Calma 4 Este 0 1000.4 -0.4 74
2019-03-22 03:00:00 3.5 3 Sudeste 6 Este 0 1000.5 -0.4 68
2019-03-22 02:00:00 4.9 0 Calma 6 Oeste 0 1000.6 0.1 63
2019-03-22 01:00:00 5.8 5 Oeste 8 Oeste 0 1000.8 1.3 53
2019-03-22 00:00:00 7.2 3 Sudeste 9 Norte 0 1000.9 2.2 47
2019-03-21 23:00:00 7.2 4 Noroeste 11 Noroeste 0 1000.5 2.4 41
2019-03-21 22:00:00 8.7 0 Calma 9 Este 0 999.5 1.7 40
2019-03-21 21:00:00 11.5 3 Sudoeste 7 Oeste 0 998.7 1 32
2019-03-21 20:00:00 13 0 Calma 9 Sudeste 0 998.1 0.2 28
2019-03-21 19:00:00 17.2 4 Este 12 Sudeste 0 997.8 -0.4 23
2019-03-21 18:00:00 19 8 Este 23 Este 0 997.7 -1.2 21
2019-03-21 17:00:00 18.9 8 Este 26 Este 0 997.9 -1.7 21
2019-03-21 16:00:00 19.4 9 Este 23 Este 0 998.2 -2.3 21
2019-03-21 15:00:00 18 10 Este 33 Este 0 998.9 -2.3 23
2019-03-21 14:00:00 19.1 8 Este 36 Este 0 999.6 -2.3 25
2019-03-21 13:00:00 18 9 Este 34 Sudeste 0 1000.5 -1.7 28
2019-03-21 12:00:00 15.9 10 Este 32 Este 0 1001.2 -1 31
2019-03-21 11:00:00 14.7 7 Este 24 Este 0 1001.9 0.1 33
2019-03-21 10:00:00 12.8 9 Este 22 Este 0 1002.2 1.1 36
2019-03-21 09:00:00 10.6 4 Sudeste 10 Sudeste 0 1002.2 1.8 47
2019-03-21 08:00:00 6.4 4 Sudeste 8 Sudeste 0 1001.8 1.5 72
2019-03-21 07:00:00 3.1 0 Calma 2 Oeste 0 1001.1 0.9 87
2019-03-21 06:00:00 4.4 0 Calma 2 Este 0 1000.4 -0.4 82
2019-03-21 05:00:00 5.3 0 Calma 4 Noroeste 0 1000.3 -0.5 78
2019-03-21 04:00:00 5.8 2 Oeste 5 Noroeste 0 1000.2 -0.6 74
2019-03-21 03:00:00 5.9 0 Calma 8 Este 0 1000.8 0.1 74
2019-03-21 02:00:00 6.7 2 Este 7 Este 0 1000.8 0.1 70
2019-03-21 01:00:00 7.9 3 Sur 8 Noroeste 0 1000.8 1 65
2019-03-21 00:00:00 9.6 0 Calma 9 Oeste 0 1000.7 1.7 56